Girdwood, AK (99587)

5:25 AM AKDT on March 31, 2015 (GMT -0800)
Portage Glacier | | Change Station
CLOSE
Current Station
Airport
Location: Portage Glacier,
Elevation: 102 ft
Nearby Weather Stations

Elev 102 ft 60.78 °N, 148.84 °W | Updated 6 minutes ago

Overcast
Overcast
30 °F
Feels Like 30 °F
N
0
Wind Variable Wind from North

Today
High -- | Low -- °F
--% Chance of Precip.
Yesterday
High -- | Low -- °F
Precip. -- in
7:23 AM 8:39 PM
Waxing Gibbous, 87% visible
Pressure 29.57 in
Visibility 10.0 miles
Clouds Overcast 400 ft
Dew Point 30 °F
Humidity 100%
Rainfall 0.00 in
Snow Depth Not available.
UV 0 out of 12
Pollen Not available.
Air Quality Not available.
Flu Activity Not available.
SPECI PATO 311319Z AUTO 00000KT 10SM OVC004 M01/M01 A2957 RMK AO2 T10111011 TSNO

More Conditions Fewer Conditions

Pressure 29.57 in
Visibility 10.0 miles
Clouds Overcast 400 ft
Dew Point 30 °F
Humidity 100%
Rainfall 0.00 in
Snow Depth Not available.
UV 0 out of 12
Pollen Not available.
Air Quality Not available.
Flu Activity Not available.
SPECI PATO 311319Z AUTO 00000KT 10SM OVC004 M01/M01 A2957 RMK AO2 T10111011 TSNO

More Conditions Fewer Conditions

10-Day Weather Forecast

Almanac

Astronomy

Mar. 31, 2015 Rise Set
Actual Time
Civil Twilight
Nautical Twilight
Astronomical Twilight
Moon
Length of Visible Light
Length of Day
Tomorrow will be .
, % of the Moon is Illuminated

Today's Extremes

State Highs State Lows

Community

WunderPhotos

Upload Photos

1,809,766 photos uploaded!

WunderBlogs® & News

Nearby

Air Quality

  Air Quality AQ Index Pollutant
Not available.

Snow Depth

Station Depth Elevation

Earthquake Activity

City Distance Mag. Time & Date
Minimum magnitude displayed is 2.5.

Coastal Water Temperatures

Place Temperature

Stations

Nearby Weather Stations

Station Location Temp. Windchill Dew Point Humidity Wind Precip. Elev Updated Type